Time;durP1;ratioP1;P1;durP2;ratioP2;P2;SDS_P1;SDS_P2;PMS_P1;PMS_P2;Temp;Humidity;BMP_temperature;BMP_pressure;BME280_temperature;BME280_humidity;BME280_pressure;Samples;Min_cycle;Max_cycle;Signal;HPM_P1;HPM_P2
2023/07/05 00:01:44;;;;;;;14.05;6.03;;;;;;;;;;10446560;28;20451;-78
2023/07/05 00:06:46;;;;;;;10.85;5.75;;;;;;;;;;10446467;28;20469;-78
2023/07/05 00:11:47;;;;;;;9.57;5.47;;;;;;;;;;10446242;28;20148;-77
2023/07/05 00:16:48;;;;;;;8.07;5.57;;;;;;;;;;10446569;28;20068;-78
2023/07/05 00:21:49;;;;;;;12.85;6.30;;;;;;;;;;10446254;28;20044;-78
2023/07/05 00:26:50;;;;;;;13.00;6.38;;;;;;;;;;10446292;28;20392;-79
2023/07/05 00:31:52;;;;;;;9.05;5.93;;;;;;;;;;10445215;28;20033;-77
2023/07/05 00:36:53;;;;;;;8.57;5.88;;;;;;;;;;10445525;28;20033;-79
2023/07/05 00:41:55;;;;;;;9.40;6.22;;;;;;;;;;10445343;28;20659;-79
2023/07/05 00:47:25;;;;;;;11.02;6.30;;;;;;;;;;10445343;28;20081;-80
2023/07/05 00:52:27;;;;;;;10.40;6.63;;;;;;;;;;10436535;28;20041;-80
2023/07/05 00:57:34;;;;;;;9.15;6.00;;;;;;;;;;10444003;28;20459;-81
2023/07/05 01:02:40;;;;;;;11.45;6.32;;;;;;;;;;10445324;28;20037;-80
2023/07/05 01:07:41;;;;;;;12.20;6.95;;;;;;;;;;10443941;28;20041;-79
2023/07/05 01:12:59;;;;;;;9.05;6.28;;;;;;;;;;10445483;28;20327;-78
2023/07/05 01:18:19;;;;;;;11.35;7.05;;;;;;;;;;10444364;28;20051;-78
2023/07/05 01:23:35;;;;;;;12.50;7.32;;;;;;;;;;10443932;28;20032;-80
2023/07/05 01:28:55;;;;;;;12.90;6.80;;;;;;;;;;10443601;28;20048;-81
2023/07/05 01:34:06;;;;;;;12.20;7.78;;;;;;;;;;10444830;28;20068;-79
2023/07/05 01:39:07;;;;;;;13.77;8.13;;;;;;;;;;10444484;28;20064;-80
2023/07/05 01:44:09;;;;;;;14.85;8.32;;;;;;;;;;10466034;28;20032;-79
2023/07/05 01:49:13;;;;;;;9.95;6.32;;;;;;;;;;10445558;28;20033;-81
2023/07/05 01:54:16;;;;;;;11.00;6.78;;;;;;;;;;10443347;28;20495;-79
2023/07/05 01:59:21;;;;;;;15.38;7.90;;;;;;;;;;10444035;28;20560;-79
2023/07/05 02:04:23;;;;;;;11.37;6.47;;;;;;;;;;10443993;28;20079;-80
2023/07/05 02:09:24;;;;;;;13.15;6.90;;;;;;;;;;10443823;28;20793;-81
2023/07/05 02:14:25;;;;;;;11.10;6.43;;;;;;;;;;10443841;28;20036;-79
2023/07/05 02:19:26;;;;;;;9.10;5.80;;;;;;;;;;10447142;28;20742;-81
2023/07/05 02:24:27;;;;;;;14.27;7.18;;;;;;;;;;10451580;28;20037;-79
2023/07/05 02:29:31;;;;;;;12.93;6.57;;;;;;;;;;10451250;28;20490;-80
2023/07/05 02:34:32;;;;;;;12.95;6.95;;;;;;;;;;10450847;28;20040;-79
2023/07/05 02:39:33;;;;;;;10.07;6.47;;;;;;;;;;10450850;28;20124;-79
2023/07/05 02:44:35;;;;;;;15.13;7.88;;;;;;;;;;10450717;28;20037;-81
2023/07/05 02:49:36;;;;;;;12.63;7.50;;;;;;;;;;10450104;28;20082;-79
2023/07/05 02:54:37;;;;;;;13.18;7.60;;;;;;;;;;10451061;28;20037;-79
2023/07/05 02:59:38;;;;;;;16.15;8.15;;;;;;;;;;10450166;28;20033;-79
2023/07/05 03:04:38;;;;;;;13.88;7.63;;;;;;;;;;10449382;28;20438;-80
2023/07/05 03:09:39;;;;;;;15.00;7.80;;;;;;;;;;10449746;28;20059;-79
2023/07/05 03:14:40;;;;;;;18.77;8.43;;;;;;;;;;10450153;28;20040;-81
2023/07/05 03:19:41;;;;;;;11.07;6.82;;;;;;;;;;10449223;28;20040;-79
2023/07/05 03:24:42;;;;;;;11.10;6.60;;;;;;;;;;10450598;28;20036;-81
2023/07/05 03:29:43;;;;;;;8.00;5.45;;;;;;;;;;10448596;28;20071;-79
2023/07/05 03:34:44;;;;;;;9.77;6.10;;;;;;;;;;10449099;28;20036;-79
2023/07/05 03:39:45;;;;;;;10.48;6.15;;;;;;;;;;10448933;28;20048;-79
2023/07/05 03:44:46;;;;;;;9.32;5.60;;;;;;;;;;10449099;28;20472;-79
2023/07/05 03:49:47;;;;;;;11.60;6.00;;;;;;;;;;10448212;28;20021;-79
2023/07/05 03:54:48;;;;;;;10.90;7.22;;;;;;;;;;10448217;28;20029;-80
2023/07/05 03:59:49;;;;;;;10.65;6.53;;;;;;;;;;10448585;28;20037;-79
2023/07/05 04:04:50;;;;;;;7.60;5.53;;;;;;;;;;10447504;28;20626;-79
2023/07/05 04:09:51;;;;;;;8.70;5.47;;;;;;;;;;10447501;28;20111;-79
2023/07/05 04:14:53;;;;;;;10.80;6.65;;;;;;;;;;10447780;28;20460;-79
2023/07/05 04:19:54;;;;;;;11.70;6.35;;;;;;;;;;10447190;28;20111;-80
2023/07/05 04:24:55;;;;;;;11.63;6.95;;;;;;;;;;10447110;28;20033;-81
2023/07/05 04:29:56;;;;;;;9.18;5.80;;;;;;;;;;10446234;28;20037;-79
2023/07/05 04:34:57;;;;;;;11.05;6.35;;;;;;;;;;10446073;28;20468;-80
2023/07/05 04:39:58;;;;;;;15.75;7.45;;;;;;;;;;10446323;28;20438;-79
2023/07/05 04:44:59;;;;;;;14.90;7.50;;;;;;;;;;10446834;28;20041;-81
2023/07/05 04:50:00;;;;;;;8.68;6.32;;;;;;;;;;10445594;28;20091;-80
2023/07/05 04:55:01;;;;;;;11.48;5.95;;;;;;;;;;10446418;28;20112;-83
2023/07/05 05:00:05;;;;;;;10.65;6.13;;;;;;;;;;10445721;28;20049;-85
2023/07/05 05:05:07;;;;;;;9.43;6.60;;;;;;;;;;10450707;28;20039;-82
2023/07/05 05:10:08;;;;;;;14.38;6.88;;;;;;;;;;10448897;28;20052;-82
2023/07/05 05:15:09;;;;;;;15.25;7.47;;;;;;;;;;10445330;28;20053;-83
2023/07/05 05:20:10;;;;;;;13.43;6.72;;;;;;;;;;10444897;28;20033;-82
2023/07/05 05:25:11;;;;;;;11.23;6.10;;;;;;;;;;10443807;28;20029;-82
2023/07/05 05:30:14;;;;;;;14.25;7.00;;;;;;;;;;10444935;28;20052;-82
2023/07/05 05:35:15;;;;;;;13.77;7.22;;;;;;;;;;10444056;28;20025;-83
2023/07/05 05:40:16;;;;;;;13.35;6.93;;;;;;;;;;10443440;28;20049;-81
2023/07/05 05:45:17;;;;;;;14.60;7.63;;;;;;;;;;10444261;28;20028;-81
2023/07/05 05:50:22;;;;;;;14.32;7.75;;;;;;;;;;10444199;28;20036;-82
2023/07/05 05:55:23;;;;;;;15.73;8.73;;;;;;;;;;10442529;28;20163;-83
2023/07/05 06:00:24;;;;;;;15.73;7.07;;;;;;;;;;10452269;28;20082;-82
2023/07/05 06:05:25;;;;;;;12.32;7.00;;;;;;;;;;10452017;28;20044;-83
2023/07/05 06:10:26;;;;;;;12.65;7.07;;;;;;;;;;10451232;28;20063;-82
2023/07/05 06:15:27;;;;;;;15.20;6.43;;;;;;;;;;10450696;28;20093;-82
2023/07/05 06:20:33;;;;;;;10.52;6.07;;;;;;;;;;10450632;28;20072;-82
2023/07/05 06:25:34;;;;;;;14.68;6.47;;;;;;;;;;10450410;28;20502;-82
2023/07/05 06:30:35;;;;;;;11.57;6.22;;;;;;;;;;10451179;28;20060;-82
2023/07/05 06:35:36;;;;;;;9.68;5.38;;;;;;;;;;10451817;28;20162;-82
2023/07/05 06:40:37;;;;;;;9.68;5.10;;;;;;;;;;10451168;28;20036;-83
2023/07/05 06:45:38;;;;;;;10.10;4.93;;;;;;;;;;10449923;28;20036;-82
2023/07/05 06:50:39;;;;;;;12.18;5.95;;;;;;;;;;10451340;28;20028;-82
2023/07/05 06:55:40;;;;;;;10.55;4.93;;;;;;;;;;10450225;28;20507;-83
2023/07/05 07:00:41;;;;;;;10.80;4.72;;;;;;;;;;10451356;28;20478;-83
2023/07/05 07:05:48;;;;;;;14.40;4.88;;;;;;;;;;10449081;28;20029;-83
2023/07/05 07:10:49;;;;;;;7.97;4.30;;;;;;;;;;10450025;28;20138;-83
2023/07/05 07:15:58;;;;;;;8.15;4.47;;;;;;;;;;10449778;28;20091;-83
2023/07/05 07:21:02;;;;;;;6.40;4.53;;;;;;;;;;10449751;28;20037;-83
2023/07/05 07:26:06;;;;;;;8.23;4.13;;;;;;;;;;10449617;28;20117;-83
2023/07/05 07:31:11;;;;;;;9.82;4.57;;;;;;;;;;10450238;28;20025;-82
2023/07/05 07:36:14;;;;;;;8.45;4.75;;;;;;;;;;10449379;28;20503;-83
2023/07/05 07:41:20;;;;;;;12.18;5.43;;;;;;;;;;10448546;28;20033;-83
2023/07/05 07:46:25;;;;;;;11.88;4.97;;;;;;;;;;10435925;28;20555;-83
2023/07/05 07:51:27;;;;;;;8.82;5.13;;;;;;;;;;10449082;28;20017;-83
2023/07/05 07:56:29;;;;;;;9.95;4.75;;;;;;;;;;10448381;28;20465;-83
2023/07/05 08:01:32;;;;;;;9.77;4.80;;;;;;;;;;10447987;28;20095;-83
2023/07/05 08:06:36;;;;;;;14.50;4.80;;;;;;;;;;10447131;28;20487;-82
2023/07/05 08:11:38;;;;;;;7.30;4.80;;;;;;;;;;10446896;28;20451;-83
2023/07/05 08:16:40;;;;;;;8.60;4.78;;;;;;;;;;10446520;28;20065;-83
2023/07/05 08:21:45;;;;;;;8.88;4.82;;;;;;;;;;10444865;28;20051;-83
2023/07/05 08:26:46;;;;;;;7.75;4.82;;;;;;;;;;10446333;28;20017;-84
2023/07/05 08:31:48;;;;;;;7.85;4.97;;;;;;;;;;10445580;28;20035;-84
2023/07/05 08:36:49;;;;;;;9.73;4.85;;;;;;;;;;10437604;28;20029;-84
2023/07/05 08:41:50;;;;;;;8.73;4.70;;;;;;;;;;10445023;28;20073;-84
2023/07/05 08:46:56;;;;;;;7.85;4.80;;;;;;;;;;10445922;28;20530;-82
2023/07/05 08:51:58;;;;;;;9.90;4.93;;;;;;;;;;10445478;28;20040;-82
2023/07/05 08:57:02;;;;;;;6.35;3.95;;;;;;;;;;10444212;28;20124;-83
2023/07/05 09:02:09;;;;;;;9.13;4.10;;;;;;;;;;10444976;28;20055;-83
2023/07/05 09:07:20;;;;;;;8.30;4.57;;;;;;;;;;10445162;28;20415;-84
2023/07/05 09:12:41;;;;;;;6.38;3.88;;;;;;;;;;10445485;28;20049;-83
2023/07/05 09:17:45;;;;;;;8.30;4.35;;;;;;;;;;10444129;28;20025;-83
2023/07/05 09:22:47;;;;;;;6.18;3.80;;;;;;;;;;10445150;28;20036;-83
2023/07/05 09:27:51;;;;;;;6.75;3.95;;;;;;;;;;10444077;28;20017;-83
2023/07/05 09:32:57;;;;;;;9.18;4.53;;;;;;;;;;10445022;28;20037;-83
2023/07/05 09:38:00;;;;;;;7.45;4.20;;;;;;;;;;10444636;28;20538;-82
2023/07/05 09:43:08;;;;;;;8.90;3.72;;;;;;;;;;10454713;28;20055;-83
2023/07/05 09:48:10;;;;;;;7.07;3.60;;;;;;;;;;10443955;28;21198;-83
2023/07/05 09:53:14;;;;;;;5.82;3.65;;;;;;;;;;10448273;28;20108;-84
2023/07/05 09:58:16;;;;;;;7.65;4.00;;;;;;;;;;10442944;28;20036;-83
2023/07/05 10:03:20;;;;;;;7.00;3.70;;;;;;;;;;10443695;28;20021;-83
2023/07/05 10:08:22;;;;;;;4.78;3.60;;;;;;;;;;10444323;28;20559;-83
2023/07/05 10:13:26;;;;;;;6.88;3.95;;;;;;;;;;10444312;28;20055;-82
2023/07/05 10:18:40;;;;;;;6.18;3.60;;;;;;;;;;10444584;28;20052;-83
2023/07/05 10:23:41;;;;;;;6.43;4.03;;;;;;;;;;10442130;28;20555;-85
2023/07/05 10:28:42;;;;;;;6.57;3.80;;;;;;;;;;10442194;28;20120;-83
2023/07/05 10:33:47;;;;;;;7.35;3.92;;;;;;;;;;10443376;28;20051;-83
2023/07/05 10:38:49;;;;;;;6.38;3.50;;;;;;;;;;10444570;28;20044;-84
2023/07/05 10:43:50;;;;;;;6.40;3.75;;;;;;;;;;10449733;28;20029;-83
2023/07/05 10:48:52;;;;;;;4.20;3.35;;;;;;;;;;10447382;28;20543;-83
2023/07/05 10:54:06;;;;;;;6.00;3.15;;;;;;;;;;10446484;28;20029;-83
2023/07/05 10:59:25;;;;;;;8.02;3.47;;;;;;;;;;10448246;28;20443;-83
2023/07/05 11:04:29;;;;;;;4.88;3.22;;;;;;;;;;10450149;28;20021;-83
2023/07/05 11:09:35;;;;;;;5.57;3.45;;;;;;;;;;10449374;28;20045;-83
2023/07/05 11:14:36;;;;;;;7.53;3.28;;;;;;;;;;10449678;28;20472;-85
2023/07/05 11:19:39;;;;;;;9.73;3.80;;;;;;;;;;10447468;28;20183;-84
2023/07/05 11:24:44;;;;;;;6.43;3.35;;;;;;;;;;10448719;28;20182;-83
2023/07/05 11:29:47;;;;;;;8.25;3.47;;;;;;;;;;10448962;28;20079;-84
2023/07/05 11:34:50;;;;;;;4.53;2.47;;;;;;;;;;10448667;28;20037;-84
2023/07/05 11:39:52;;;;;;;5.00;3.07;;;;;;;;;;10446626;28;20029;-84
2023/07/05 11:44:56;;;;;;;5.35;3.03;;;;;;;;;;10447728;28;20415;-85
2023/07/05 11:50:08;;;;;;;4.90;3.40;;;;;;;;;;10447201;28;20566;-84
2023/07/05 11:55:20;;;;;;;6.55;3.97;;;;;;;;;;10448513;28;20029;-84
2023/07/05 12:00:27;;;;;;;5.53;3.42;;;;;;;;;;10448100;28;20072;-85
2023/07/05 12:05:33;;;;;;;4.85;3.25;;;;;;;;;;10447678;28;20588;-84
2023/07/05 12:10:35;;;;;;;5.07;3.38;;;;;;;;;;10448346;28;20118;-85
2023/07/05 12:15:37;;;;;;;5.95;3.47;;;;;;;;;;10445815;28;20031;-86
2023/07/05 12:20:40;;;;;;;4.25;3.00;;;;;;;;;;10447447;28;20556;-84
2023/07/05 12:25:42;;;;;;;5.85;3.47;;;;;;;;;;10446979;28;20025;-84
2023/07/05 12:30:44;;;;;;;6.03;3.17;;;;;;;;;;10447365;28;20024;-85
2023/07/05 12:35:45;;;;;;;9.20;4.28;;;;;;;;;;10446169;28;20029;-84
2023/07/05 12:40:54;;;;;;;6.68;3.70;;;;;;;;;;10446555;28;20032;-84
2023/07/05 12:46:08;;;;;;;7.90;3.92;;;;;;;;;;10445388;28;20043;-83
2023/07/05 12:51:29;;;;;;;6.70;3.47;;;;;;;;;;10433022;28;20040;-85
2023/07/05 12:56:35;;;;;;;5.28;3.70;;;;;;;;;;10444985;28;20049;-84
2023/07/05 13:01:37;;;;;;;5.32;4.22;;;;;;;;;;10444212;28;20473;-85
2023/07/05 13:06:39;;;;;;;8.30;3.40;;;;;;;;;;10445156;28;20484;-84
2023/07/05 13:11:40;;;;;;;5.55;3.67;;;;;;;;;;10445311;28;20694;-84
2023/07/05 13:16:44;;;;;;;5.63;3.78;;;;;;;;;;10444948;28;20479;-83
2023/07/05 13:21:45;;;;;;;;;;;;;;;;;;10445992;28;20033;-84
2023/07/05 13:26:47;;;;;;;7.18;3.28;;;;;;;;;;10443113;28;19909;-84
2023/07/05 13:31:49;;;;;;;9.20;3.13;;;;;;;;;;10443646;28;20086;-84
2023/07/05 13:36:52;;;;;;;5.93;3.30;;;;;;;;;;10444694;28;20033;-83
2023/07/05 13:41:53;;;;;;;5.45;3.60;;;;;;;;;;10445104;28;20136;-85
2023/07/05 13:46:54;;;;;;;6.53;3.65;;;;;;;;;;10443430;28;20055;-85
2023/07/05 13:51:57;;;;;;;5.25;3.42;;;;;;;;;;10442915;28;20155;-84
2023/07/05 13:56:58;;;;;;;6.25;3.03;;;;;;;;;;10455878;28;20043;-84
2023/07/05 14:02:19;;;;;;;6.32;3.33;;;;;;;;;;10443935;28;20075;-84
2023/07/05 14:07:20;;;;;;;5.95;3.72;;;;;;;;;;10442710;28;20037;-84
2023/07/05 14:12:22;;;;;;;9.85;3.97;;;;;;;;;;10443599;28;20044;-83
2023/07/05 14:17:24;;;;;;;4.90;3.55;;;;;;;;;;10456390;28;20029;-85
2023/07/05 14:22:25;;;;;;;6.10;3.75;;;;;;;;;;10451655;28;20041;-84
2023/07/05 14:27:26;;;;;;;6.38;3.63;;;;;;;;;;10450670;28;20040;-84
2023/07/05 14:32:27;;;;;;;6.35;3.50;;;;;;;;;;10451492;28;20036;-84
2023/07/05 14:37:29;;;;;;;9.00;6.13;;;;;;;;;;10450781;28;20476;-84
2023/07/05 14:42:30;;;;;;;7.90;3.88;;;;;;;;;;10451202;28;20102;-84
2023/07/05 14:47:31;;;;;;;7.10;3.67;;;;;;;;;;10449999;28;20615;-84
2023/07/05 14:52:32;;;;;;;7.07;4.10;;;;;;;;;;10450297;28;20094;-85
2023/07/05 14:57:33;;;;;;;5.88;3.42;;;;;;;;;;10450532;28;20037;-85
2023/07/05 15:02:34;;;;;;;5.35;3.75;;;;;;;;;;10450910;28;20485;-83
2023/07/05 15:07:35;;;;;;;6.13;3.85;;;;;;;;;;10459741;28;20562;-82
2023/07/05 15:12:40;;;;;;;7.18;4.05;;;;;;;;;;10451049;28;20021;-83
2023/07/05 15:17:41;;;;;;;8.68;4.22;;;;;;;;;;10448991;28;20068;-84
2023/07/05 15:22:46;;;;;;;7.25;4.40;;;;;;;;;;10448808;28;20045;-85
2023/07/05 15:27:48;;;;;;;7.80;4.77;;;;;;;;;;10448996;28;20108;-83
2023/07/05 15:32:49;;;;;;;9.63;4.50;;;;;;;;;;10443026;28;20031;-83
2023/07/05 15:37:50;;;;;;;7.90;4.38;;;;;;;;;;10446287;28;20033;-83
2023/07/05 15:42:52;;;;;;;7.53;4.43;;;;;;;;;;10441074;28;20033;-85
2023/07/05 15:47:54;;;;;;;8.32;4.55;;;;;;;;;;10443423;28;20032;-83
2023/07/05 15:52:55;;;;;;;9.55;3.90;;;;;;;;;;10448559;28;20048;-83
2023/07/05 15:58:00;;;;;;;7.60;4.38;;;;;;;;;;10453542;28;20028;-83
2023/07/05 16:03:01;;;;;;;6.78;3.63;;;;;;;;;;10449892;28;20419;-85
2023/07/05 16:08:04;;;;;;;5.85;4.00;;;;;;;;;;10447095;28;20381;-83
2023/07/05 16:13:05;;;;;;;8.88;5.68;;;;;;;;;;10447542;28;20051;-84
2023/07/05 16:18:07;;;;;;;9.60;5.72;;;;;;;;;;10445524;28;20029;-85
2023/07/05 16:23:08;;;;;;;8.68;5.32;;;;;;;;;;10446226;28;20036;-86
2023/07/05 16:28:11;;;;;;;7.95;4.68;;;;;;;;;;10444858;28;20033;-86
2023/07/05 16:33:12;;;;;;;8.52;4.75;;;;;;;;;;10445832;28;20036;-84
2023/07/05 16:38:13;;;;;;;7.32;4.40;;;;;;;;;;10446462;28;20063;-85
2023/07/05 16:43:14;;;;;;;6.80;4.60;;;;;;;;;;10443891;28;20122;-86
2023/07/05 16:48:15;;;;;;;5.75;4.13;;;;;;;;;;10446390;28;20032;-84
2023/07/05 16:53:18;;;;;;;5.38;3.25;;;;;;;;;;10459988;28;20025;-84
2023/07/05 16:58:19;;;;;;;6.70;3.88;;;;;;;;;;10444820;28;20037;-85
2023/07/05 17:03:20;;;;;;;6.38;3.92;;;;;;;;;;10445914;28;20033;-85
2023/07/05 17:08:21;;;;;;;5.75;3.88;;;;;;;;;;10451222;28;20647;-84
2023/07/05 17:13:22;;;;;;;5.78;3.78;;;;;;;;;;10444417;28;20029;-86
2023/07/05 17:18:23;;;;;;;7.25;4.53;;;;;;;;;;10444326;28;20029;-83
2023/07/05 17:23:26;;;;;;;11.07;4.35;;;;;;;;;;10445158;28;20426;-81
2023/07/05 17:28:31;;;;;;;14.55;6.15;;;;;;;;;;10450514;28;20044;-89
2023/07/05 17:33:32;;;;;;;11.53;5.73;;;;;;;;;;10441084;28;20037;-89
2023/07/05 17:38:33;;;;;;;9.60;5.40;;;;;;;;;;10440265;28;20024;-87
2023/07/05 17:43:35;;;;;;;10.18;5.45;;;;;;;;;;10432579;28;20067;-81
2023/07/05 17:48:36;;;;;;;12.05;6.50;;;;;;;;;;10442828;28;20385;-81
2023/07/05 17:53:37;;;;;;;13.60;6.95;;;;;;;;;;10446684;28;20064;-82
2023/07/05 17:58:39;;;;;;;13.95;8.93;;;;;;;;;;10453213;28;20021;-83
2023/07/05 18:03:41;;;;;;;17.67;10.07;;;;;;;;;;10452506;28;20028;-81
2023/07/05 18:08:43;;;;;;;15.65;9.70;;;;;;;;;;10451869;28;20037;-84
2023/07/05 18:13:45;;;;;;;19.02;11.07;;;;;;;;;;10452371;28;20025;-81
2023/07/05 18:18:46;;;;;;;13.65;8.35;;;;;;;;;;10450161;28;20112;-83
2023/07/05 18:23:47;;;;;;;13.25;6.68;;;;;;;;;;10451621;28;20043;-84
2023/07/05 18:28:51;;;;;;;10.43;6.13;;;;;;;;;;10450889;28;20067;-81
2023/07/05 18:33:53;;;;;;;12.18;5.85;;;;;;;;;;10448594;28;20033;-82
2023/07/05 18:38:54;;;;;;;9.43;5.68;;;;;;;;;;10450201;28;20082;-81
2023/07/05 18:43:55;;;;;;;12.10;7.00;;;;;;;;;;10451149;28;20503;-81
2023/07/05 18:48:56;;;;;;;11.98;6.57;;;;;;;;;;10449595;28;20116;-82
2023/07/05 18:53:57;;;;;;;11.10;5.95;;;;;;;;;;10449984;28;20434;-81
2023/07/05 18:58:59;;;;;;;10.50;5.82;;;;;;;;;;10449320;28;20455;-81
2023/07/05 19:04:01;;;;;;;10.02;5.80;;;;;;;;;;10449281;28;20051;-80
2023/07/05 19:09:02;;;;;;;11.75;6.25;;;;;;;;;;10449598;28;20718;-82
2023/07/05 19:14:03;;;;;;;12.15;6.35;;;;;;;;;;10448044;28;20033;-81
2023/07/05 19:19:06;;;;;;;11.68;6.38;;;;;;;;;;10450203;28;20037;-83
2023/07/05 19:24:07;;;;;;;14.32;6.43;;;;;;;;;;10447533;28;20036;-81
2023/07/05 19:29:09;;;;;;;10.38;6.20;;;;;;;;;;10447835;28;20039;-82
2023/07/05 19:34:10;;;;;;;11.93;6.72;;;;;;;;;;10447900;28;20036;-79
2023/07/05 19:39:11;;;;;;;14.02;8.25;;;;;;;;;;10448621;28;20774;-82
2023/07/05 19:44:12;;;;;;;13.55;7.25;;;;;;;;;;10449085;28;20669;-81
2023/07/05 19:49:13;;;;;;;17.00;7.10;;;;;;;;;;10449059;28;20511;-83
2023/07/05 19:54:14;;;;;;;10.68;7.03;;;;;;;;;;10448376;28;20488;-84
2023/07/05 19:59:15;;;;;;;11.00;6.60;;;;;;;;;;10447344;28;20102;-80
2023/07/05 20:04:16;;;;;;;15.27;8.70;;;;;;;;;;10446795;28;20060;-80
2023/07/05 20:09:18;;;;;;;15.32;8.65;;;;;;;;;;10446352;28;20045;-82
2023/07/05 20:14:20;;;;;;;12.85;8.18;;;;;;;;;;10447479;28;20036;-82
2023/07/05 20:19:21;;;;;;;21.55;10.55;;;;;;;;;;10447508;28;20040;-81
2023/07/05 20:24:22;;;;;;;24.90;10.82;;;;;;;;;;10447317;28;20036;-82
2023/07/05 20:29:23;;;;;;;13.15;8.55;;;;;;;;;;10446864;28;20051;-80
2023/07/05 20:34:24;;;;;;;16.80;10.23;;;;;;;;;;10446625;28;20024;-81
2023/07/05 20:39:25;;;;;;;14.43;9.77;;;;;;;;;;10446053;28;20095;-80
2023/07/05 20:44:26;;;;;;;20.60;9.52;;;;;;;;;;10445448;28;20078;-80
2023/07/05 20:49:27;;;;;;;15.15;9.15;;;;;;;;;;10444585;28;20024;-80
2023/07/05 20:54:28;;;;;;;15.85;9.27;;;;;;;;;;10446416;28;20040;-81
2023/07/05 20:59:31;;;;;;;20.17;11.07;;;;;;;;;;10438045;28;20048;-80
2023/07/05 21:04:32;;;;;;;18.02;10.70;;;;;;;;;;10443925;28;20025;-80
2023/07/05 21:09:33;;;;;;;17.70;11.40;;;;;;;;;;10444460;28;20064;-80
2023/07/05 21:14:34;;;;;;;18.20;10.82;;;;;;;;;;10444301;28;20120;-80
2023/07/05 21:19:36;;;;;;;16.77;9.68;;;;;;;;;;10445413;28;20041;-83
2023/07/05 21:24:37;;;;;;;15.88;9.48;;;;;;;;;;10443788;28;20036;-83
2023/07/05 21:29:38;;;;;;;17.45;10.38;;;;;;;;;;10444047;28;20043;-83
2023/07/05 21:34:39;;;;;;;13.90;8.85;;;;;;;;;;10444783;28;20439;-83
2023/07/05 21:39:40;;;;;;;16.42;9.38;;;;;;;;;;10443790;28;20083;-83
2023/07/05 21:44:41;;;;;;;16.02;10.25;;;;;;;;;;10444263;28;20128;-80
2023/07/05 21:49:42;;;;;;;15.73;10.25;;;;;;;;;;10443921;28;20029;-80
2023/07/05 21:54:43;;;;;;;14.43;9.63;;;;;;;;;;10444025;28;20033;-80
2023/07/05 21:59:45;;;;;;;22.02;11.38;;;;;;;;;;10444285;28;20037;-80
2023/07/05 22:04:46;;;;;;;17.45;10.75;;;;;;;;;;10443776;28;20557;-82
2023/07/05 22:09:48;;;;;;;12.68;9.10;;;;;;;;;;10443155;28;20127;-82
2023/07/05 22:14:49;;;;;;;15.23;10.00;;;;;;;;;;10443129;28;20060;-82
2023/07/05 22:19:50;;;;;;;20.13;11.93;;;;;;;;;;10443066;28;20071;-81
2023/07/05 22:24:51;;;;;;;19.35;10.90;;;;;;;;;;10443179;28;20033;-80
2023/07/05 22:29:52;;;;;;;12.50;9.82;;;;;;;;;;10444015;28;20048;-81
2023/07/05 22:34:53;;;;;;;27.90;15.25;;;;;;;;;;10445189;28;20040;-81
2023/07/05 22:39:54;;;;;;;21.33;12.13;;;;;;;;;;10451069;28;20194;-82
2023/07/05 22:44:55;;;;;;;19.15;11.95;;;;;;;;;;10450799;28;20162;-81
2023/07/05 22:49:55;;;;;;;22.25;12.75;;;;;;;;;;10449954;28;20494;-81
2023/07/05 22:54:56;;;;;;;23.17;14.93;;;;;;;;;;10450851;28;20033;-80
2023/07/05 22:59:58;;;;;;;19.15;12.07;;;;;;;;;;10450100;28;20052;-81
2023/07/05 23:04:59;;;;;;;30.17;14.85;;;;;;;;;;10450412;28;20029;-82
2023/07/05 23:10:00;;;;;;;33.75;17.90;;;;;;;;;;10450727;28;20049;-80
2023/07/05 23:15:06;;;;;;;38.42;18.20;;;;;;;;;;10450140;28;20160;-80
2023/07/05 23:20:11;;;;;;;41.60;21.85;;;;;;;;;;10449266;28;20071;-81
2023/07/05 23:25:12;;;;;;;27.77;16.58;;;;;;;;;;10448905;28;20384;-80
2023/07/05 23:30:14;;;;;;;70.65;23.13;;;;;;;;;;10449397;28;20120;-79
2023/07/05 23:35:16;;;;;;;52.47;20.92;;;;;;;;;;10449835;28;20107;-82
2023/07/05 23:40:18;;;;;;;25.67;16.67;;;;;;;;;;10448383;28;20064;-82
2023/07/05 23:45:20;;;;;;;34.92;18.63;;;;;;;;;;10447920;28;20125;-81
2023/07/05 23:50:21;;;;;;;35.85;20.27;;;;;;;;;;10448225;28;20062;-80
2023/07/05 23:55:22;;;;;;;70.55;26.20;;;;;;;;;;10448318;28;20027;-80
